createdAt,value
2018-12-08T00:00:13.955Z,99667.48
2018-12-08T00:02:47.819Z,99667.98
2018-12-08T00:05:20.577Z,99669.81
2018-12-08T00:07:52.464Z,99675.42
2018-12-08T00:10:24.110Z,99675.42
2018-12-08T00:12:56.104Z,99673.36
2018-12-08T00:15:28.059Z,99674.66
2018-12-08T00:18:00.162Z,99683.14
2018-12-08T00:20:32.319Z,99677.84
2018-12-08T00:23:04.328Z,99680.80
2018-12-08T00:25:36.411Z,99687.48
2018-12-08T00:28:08.152Z,99688.78
2018-12-08T00:30:49.499Z,99689.06
2018-12-08T00:33:21.594Z,99699.02
2018-12-08T00:35:53.427Z,99698.30
2018-12-08T00:38:25.244Z,99697.58
2018-12-08T00:40:56.834Z,99701.86
2018-12-08T00:43:29.438Z,99705.81
2018-12-08T00:46:01.082Z,99709.92
2018-12-08T00:48:32.665Z,99721.51
2018-12-08T00:51:04.191Z,99723.33
2018-12-08T00:53:36.272Z,99726.13
2018-12-08T00:56:07.874Z,99730.02
2018-12-08T00:58:40.246Z,99727.31
2018-12-08T01:01:11.919Z,99733.08
2018-12-08T01:03:44.118Z,99731.42
2018-12-08T01:06:16.170Z,99728.13
2018-12-08T01:09:06.556Z,99738.41
2018-12-08T01:11:40.559Z,99745.73
2018-12-08T01:14:12.503Z,99745.69
2018-12-08T01:16:44.195Z,99758.05
2018-12-08T01:19:16.061Z,99761.19
2018-12-08T01:21:48.246Z,99759.84
2018-12-08T01:24:22.629Z,99766.91
2018-12-08T01:26:54.415Z,99761.99
2018-12-08T01:29:26.137Z,99770.25
2018-12-08T01:31:58.264Z,99778.66
2018-12-08T01:34:30.080Z,99784.27
2018-12-08T01:37:02.111Z,99786.05
2018-12-08T01:39:34.453Z,99779.44
2018-12-08T01:42:07.014Z,99783.66
2018-12-08T01:44:39.229Z,99785.85
2018-12-08T01:47:10.945Z,99793.57
2018-12-08T01:49:43.050Z,99798.16
2018-12-08T01:52:15.059Z,99802.55
2018-12-08T01:54:47.291Z,99810.27
2018-12-08T01:57:19.091Z,99812.23
2018-12-08T01:59:52.489Z,99811.26
2018-12-08T02:02:24.545Z,99826.81
2018-12-08T02:04:56.633Z,99833.23
2018-12-08T02:07:29.563Z,99834.60
2018-12-08T02:10:01.629Z,99842.29
2018-12-08T02:12:34.861Z,99847.31
2018-12-08T02:15:07.184Z,99851.73
2018-12-08T02:17:39.277Z,99849.36
2018-12-08T02:20:11.496Z,99858.50
2018-12-08T02:22:43.560Z,99864.78
2018-12-08T02:25:15.776Z,99866.74
2018-12-08T02:27:47.873Z,99875.69
2018-12-08T02:30:19.806Z,99875.62
2018-12-08T02:32:51.919Z,99873.82
2018-12-08T02:35:24.273Z,99881.45
2018-12-08T02:37:56.613Z,99883.67
2018-12-08T02:40:28.696Z,99890.54
2018-12-08T02:43:00.625Z,99894.20
2018-12-08T02:45:32.670Z,99903.39
2018-12-08T02:48:04.200Z,99906.61
2018-12-08T02:50:36.276Z,99914.70
2018-12-08T02:53:08.347Z,99914.14
2018-12-08T02:55:40.591Z,99916.61
2018-12-08T02:58:12.297Z,99921.72
2018-12-08T03:00:44.980Z,99922.58
2018-12-08T03:03:16.908Z,99924.73
2018-12-08T03:05:49.168Z,99929.36
2018-12-08T03:08:21.762Z,99932.91
2018-12-08T03:10:54.216Z,99939.95
2018-12-08T03:13:27.190Z,99945.83
2018-12-08T03:15:59.603Z,99946.92
2018-12-08T03:19:34.263Z,99952.44
2018-12-08T03:22:06.009Z,99956.91
2018-12-08T03:24:37.753Z,99950.73
2018-12-08T03:27:09.773Z,99961.67
2018-12-08T03:29:41.874Z,99962.38
2018-12-08T03:32:13.535Z,99960.77
2018-12-08T03:34:45.491Z,99963.89
2018-12-08T03:37:17.068Z,99971.27
2018-12-08T03:39:49.251Z,99969.09
2018-12-08T03:42:21.124Z,99968.70
2018-12-08T03:44:53.169Z,99976.14
2018-12-08T03:47:25.054Z,99976.02
2018-12-08T03:49:57.152Z,99981.39
2018-12-08T03:52:30.306Z,99986.63
2018-12-08T03:55:01.910Z,99995.12
2018-12-08T03:57:35.939Z,99994.52
2018-12-08T04:00:08.210Z,100000.63
2018-12-08T04:02:40.857Z,99999.75
2018-12-08T04:05:13.001Z,100004.13
2018-12-08T04:07:45.267Z,100004.13
2018-12-08T04:10:17.922Z,100006.94
2018-12-08T04:12:49.899Z,100002.30
2018-12-08T04:15:21.899Z,100005.57
2018-12-08T04:17:54.327Z,100006.22
2018-12-08T04:20:26.576Z,100005.97
2018-12-08T04:22:58.532Z,100010.00
2018-12-08T04:25:30.312Z,100012.11
2018-12-08T04:28:02.241Z,100006.36
2018-12-08T04:30:34.015Z,100002.95
2018-12-08T04:33:05.894Z,100002.84
2018-12-08T04:35:37.800Z,100006.83
2018-12-08T04:38:10.118Z,100009.27
2018-12-08T04:40:42.472Z,100011.73
2018-12-08T04:43:14.330Z,100009.41
2018-12-08T04:45:46.383Z,100005.71
2018-12-08T04:48:19.445Z,100006.22
2018-12-08T04:50:52.142Z,100009.20
2018-12-08T04:53:24.038Z,100005.45
2018-12-08T04:55:56.107Z,100005.98
2018-12-08T04:58:28.113Z,100000.50
2018-12-08T05:00:59.827Z,100000.89
2018-12-08T05:03:32.037Z,100004.42
2018-12-08T05:06:03.871Z,99998.14
2018-12-08T05:08:36.259Z,100000.95
2018-12-08T05:11:08.732Z,99995.88
2018-12-08T05:13:40.655Z,99994.75
2018-12-08T05:16:12.469Z,99984.92
2018-12-08T05:18:44.548Z,99985.20
2018-12-08T05:21:16.826Z,99978.20
2018-12-08T05:23:49.429Z,99969.06
2018-12-08T05:26:21.295Z,99964.07
2018-12-08T05:28:53.570Z,99962.59
2018-12-08T05:31:25.548Z,99964.30
2018-12-08T05:33:57.642Z,99956.20
2018-12-08T05:36:29.744Z,99957.42
2018-12-08T05:39:01.618Z,99952.92
2018-12-08T05:41:37.270Z,99959.12
2018-12-08T05:44:09.530Z,99943.37
2018-12-08T05:46:41.301Z,99948.33
2018-12-08T05:49:13.341Z,99943.88
2018-12-08T05:51:45.155Z,99937.34
2018-12-08T05:54:17.626Z,99933.70
2018-12-08T05:56:49.533Z,99927.52
2018-12-08T05:59:21.438Z,99930.05
2018-12-08T06:01:53.500Z,99928.54
2018-12-08T06:04:25.654Z,99916.77
2018-12-08T06:06:57.310Z,99918.07
2018-12-08T06:09:29.000Z,99909.87
2018-12-08T06:12:01.058Z,99908.33
2018-12-08T06:14:33.051Z,99899.61
2018-12-08T06:17:05.722Z,99902.56
2018-12-08T06:19:37.355Z,99897.23
2018-12-08T06:22:09.095Z,99890.09
2018-12-08T06:24:42.373Z,99888.56
2018-12-08T06:27:22.418Z,99885.75
2018-12-08T06:29:58.588Z,99876.62
2018-12-08T06:32:31.036Z,99873.87
2018-12-08T06:35:02.680Z,99867.12
2018-12-08T06:37:34.340Z,99865.77
2018-12-08T06:40:06.600Z,99862.98
2018-12-08T06:42:38.903Z,99860.65
2018-12-08T06:54:39.920Z,99836.59
2018-12-08T06:57:11.986Z,99835.48
2018-12-08T07:02:44.848Z,99824.16
2018-12-08T07:05:18.719Z,99815.53
2018-12-08T07:07:50.841Z,99811.81
2018-12-08T07:10:22.600Z,99805.73
2018-12-08T07:12:54.433Z,99809.57
2018-12-08T07:15:26.496Z,99803.87
2018-12-08T07:17:58.166Z,99797.16
2018-12-08T07:20:30.215Z,99782.01
2018-12-08T07:23:02.101Z,99786.86
2018-12-08T07:25:34.604Z,99784.92
2018-12-08T07:28:06.380Z,99778.38
2018-12-08T07:30:38.176Z,99767.43
2018-12-08T07:33:10.112Z,99764.95
2018-12-08T07:35:43.552Z,99764.87
2018-12-08T07:38:15.738Z,99761.95
2018-12-08T07:40:50.272Z,99759.33
2018-12-08T07:43:22.961Z,99758.87
2018-12-08T07:45:54.563Z,99755.60
2018-12-08T07:48:27.059Z,99748.24
2018-12-08T07:50:58.534Z,99740.45
2018-12-08T07:53:30.498Z,99744.13
2018-12-08T07:56:05.572Z,99740.58
2018-12-08T07:58:37.265Z,99735.80
2018-12-08T08:01:09.846Z,99733.43
2018-12-08T08:04:02.983Z,99733.90
2018-12-08T08:06:36.912Z,99725.71
2018-12-08T08:09:20.197Z,99724.94
2018-12-08T08:11:53.766Z,99723.42
2018-12-08T08:14:26.664Z,99719.09
2018-12-08T08:17:04.977Z,99724.26
2018-12-08T08:19:39.655Z,99716.44
2018-12-08T08:22:11.069Z,99709.23
2018-12-08T08:24:42.722Z,99710.40
2018-12-08T08:27:14.282Z,99710.30
2018-12-08T08:29:50.945Z,99712.40
2018-12-08T08:32:22.683Z,99709.57
2018-12-08T08:34:54.361Z,99699.62
2018-12-08T08:37:27.361Z,99704.64
2018-12-08T08:43:02.592Z,99700.98
2018-12-08T08:45:34.073Z,99692.04
2018-12-08T08:48:05.717Z,99686.64
2018-12-08T08:50:39.661Z,99690.42
2018-12-08T08:53:11.344Z,99677.44
2018-12-08T08:55:51.903Z,99675.18
2018-12-08T09:01:26.539Z,99672.48
2018-12-08T09:03:59.313Z,99673.08
2018-12-08T09:06:40.022Z,99668.27
2018-12-08T09:09:20.665Z,99666.03
2018-12-08T09:12:09.297Z,99658.42
2018-12-08T09:14:44.209Z,99660.33
2018-12-08T09:17:32.276Z,99657.53
2018-12-08T09:20:04.798Z,99661.23
2018-12-08T09:25:34.313Z,99659.80
2018-12-08T09:28:06.005Z,99660.88
2018-12-08T09:30:37.613Z,99661.27
2018-12-08T09:33:09.282Z,99659.18
2018-12-08T09:35:42.682Z,99657.67
2018-12-08T09:38:16.406Z,99654.34
2018-12-08T09:44:01.980Z,99653.70
2018-12-08T09:46:33.494Z,99653.20
2018-12-08T09:49:05.100Z,99652.36
2018-12-08T09:51:36.685Z,99647.38
2018-12-08T09:54:08.391Z,99648.30
2018-12-08T09:56:51.069Z,99648.38
2018-12-08T09:59:22.579Z,99646.18
2018-12-08T10:01:54.128Z,99649.96
2018-12-08T10:04:26.428Z,99650.27
2018-12-08T10:06:58.845Z,99651.70
2018-12-08T10:09:33.700Z,99644.79
2018-12-08T10:12:14.711Z,99645.22
2018-12-08T10:17:53.912Z,99638.50
2018-12-08T10:20:43.710Z,99642.75
2018-12-08T10:23:23.033Z,99637.73
2018-12-08T10:26:01.645Z,99644.88
2018-12-08T10:28:33.670Z,99637.19
2018-12-08T10:31:05.239Z,99644.29
2018-12-08T10:33:52.848Z,99639.05
2018-12-08T10:36:28.515Z,99632.64
2018-12-08T10:39:10.404Z,99636.19
2018-12-08T10:41:41.923Z,99642.78
2018-12-08T10:44:16.389Z,99635.87
2018-12-08T10:47:00.008Z,99637.73
2018-12-08T10:49:32.674Z,99625.31
2018-12-08T10:52:09.031Z,99626.51
2018-12-08T10:54:47.244Z,99628.55
2018-12-08T10:57:22.406Z,99625.66
2018-12-08T11:03:08.800Z,99627.33
2018-12-08T11:05:40.209Z,99626.59
2018-12-08T11:08:12.232Z,99635.92
2018-12-08T11:10:44.099Z,99629.37
2018-12-08T11:13:17.803Z,99627.59
2018-12-08T11:15:50.372Z,99635.72
2018-12-08T11:18:21.949Z,99639.34
2018-12-08T11:20:53.428Z,99636.34
2018-12-08T11:23:25.336Z,99638.62
2018-12-08T11:25:58.432Z,99631.83
2018-12-08T11:28:31.041Z,99635.50
2018-12-08T11:31:06.493Z,99647.07
2018-12-08T11:33:37.976Z,99649.92
2018-12-08T11:36:09.587Z,99644.45
2018-12-08T11:38:42.360Z,99646.99
2018-12-08T11:41:14.835Z,99647.26
2018-12-08T11:43:47.339Z,99648.15
2018-12-08T11:46:19.240Z,99642.91
2018-12-08T11:48:50.913Z,99645.14
2018-12-08T11:51:22.352Z,99645.30
2018-12-08T11:56:58.842Z,99646.45
2018-12-08T11:59:30.429Z,99650.19
2018-12-08T12:02:02.146Z,99649.23
2018-12-08T12:04:33.769Z,99654.66
2018-12-08T12:07:05.358Z,99658.29
2018-12-08T12:09:40.876Z,99666.47
2018-12-08T12:12:12.505Z,99657.39
2018-12-08T12:14:49.654Z,99653.41
2018-12-08T12:17:23.536Z,99660.54
2018-12-08T12:19:55.150Z,99658.89
2018-12-08T12:22:26.941Z,99663.07
2018-12-08T12:25:03.739Z,99664.92
2018-12-08T12:27:35.667Z,99670.44
2018-12-08T12:30:08.533Z,99672.95
2018-12-08T12:32:41.351Z,99668.70
2018-12-08T12:35:14.888Z,99674.11
2018-12-08T12:37:46.592Z,99673.76
2018-12-08T12:40:28.466Z,99675.16
2018-12-08T12:43:01.131Z,99678.77
2018-12-08T12:45:33.995Z,99683.90
2018-12-08T12:48:11.126Z,99684.48
2018-12-08T12:50:43.667Z,99686.59
2018-12-08T12:53:15.376Z,99690.11
2018-12-08T12:55:46.995Z,99693.08
2018-12-08T12:58:25.130Z,99692.50
2018-12-08T13:01:05.543Z,99694.66
2018-12-08T13:03:40.796Z,99700.48
2018-12-08T13:06:25.364Z,99698.16
2018-12-08T13:08:56.986Z,99693.95
2018-12-08T13:11:30.046Z,99700.04
2018-12-08T13:14:01.817Z,99696.63
2018-12-08T13:16:34.399Z,99693.41
2018-12-08T13:19:06.737Z,99700.86
2018-12-08T13:21:38.330Z,99703.64
2018-12-08T13:24:10.018Z,99706.11
2018-12-08T13:26:41.593Z,99712.43
2018-12-08T13:29:13.244Z,99708.62
2018-12-08T13:31:56.943Z,99710.40
2018-12-08T13:34:30.927Z,99709.66
2018-12-08T13:37:08.695Z,99716.63
2018-12-08T13:39:40.462Z,99712.84
2018-12-08T13:42:12.630Z,99720.31
2018-12-08T13:44:44.327Z,99713.08
2018-12-08T13:47:15.913Z,99711.94
2018-12-08T13:49:58.363Z,99710.71
2018-12-08T13:52:33.719Z,99717.27
2018-12-08T13:55:10.624Z,99717.00
2018-12-08T13:57:43.353Z,99719.86
2018-12-08T14:00:18.334Z,99720.05
2018-12-08T14:02:49.902Z,99723.09
2018-12-08T14:05:21.557Z,99729.78
2018-12-08T14:07:53.059Z,99729.41
2018-12-08T14:10:24.753Z,99730.88
2018-12-08T14:12:57.238Z,99730.81
2018-12-08T14:15:29.011Z,99726.42
2018-12-08T14:18:00.622Z,99729.73
2018-12-08T14:20:34.771Z,99719.47
2018-12-08T14:23:06.461Z,99729.95
2018-12-08T14:25:38.128Z,99727.56
2018-12-08T14:28:10.729Z,99736.95
2018-12-08T14:30:42.298Z,99730.32
2018-12-08T14:33:15.316Z,99723.38
2018-12-08T14:35:47.361Z,99728.48
2018-12-08T14:38:18.920Z,99729.57
2018-12-08T14:40:51.610Z,99736.64
2018-12-08T14:43:24.022Z,99735.86
2018-12-08T14:45:55.779Z,99740.31
2018-12-08T14:48:27.237Z,99732.56
2018-12-08T14:51:00.464Z,99739.63
2018-12-08T14:53:32.054Z,99741.53
2018-12-08T14:56:03.840Z,99741.53
2018-12-08T14:58:35.484Z,99742.37
2018-12-08T15:01:07.215Z,99746.77
2018-12-08T15:03:38.738Z,99745.36
2018-12-08T15:06:11.476Z,99752.16
2018-12-08T15:08:43.257Z,99749.22
2018-12-08T15:11:15.087Z,99739.28
2018-12-08T15:13:46.679Z,99747.69
2018-12-08T15:16:18.403Z,99748.54
2018-12-08T15:18:49.960Z,99751.81
2018-12-08T15:21:22.372Z,99753.05
2018-12-08T15:23:54.892Z,99748.28
2018-12-08T15:26:26.529Z,99753.22
2018-12-08T15:29:01.229Z,99743.38
2018-12-08T15:31:37.584Z,99748.54
2018-12-08T15:34:09.056Z,99743.24
2018-12-08T15:36:40.804Z,99744.32
2018-12-08T15:39:17.979Z,99749.55
2018-12-08T15:41:50.626Z,99748.44
2018-12-08T15:44:23.056Z,99750.53
2018-12-08T15:46:54.623Z,99747.55
2018-12-08T15:49:26.189Z,99745.30
2018-12-08T15:51:59.859Z,99745.00
2018-12-08T15:54:33.527Z,99751.43
2018-12-08T15:57:05.224Z,99754.44
2018-12-08T15:59:37.640Z,99751.43
2018-12-08T16:02:10.210Z,99753.78
2018-12-08T16:04:42.725Z,99746.02
2018-12-08T16:07:19.183Z,99748.62
2018-12-08T16:10:01.219Z,99746.72
2018-12-08T16:12:33.359Z,99746.55
2018-12-08T16:15:06.657Z,99751.18
2018-12-08T16:17:38.544Z,99752.03
2018-12-08T16:20:14.421Z,99747.25
2018-12-08T16:22:49.795Z,99751.95
2018-12-08T16:25:22.290Z,99745.02
2018-12-08T16:27:58.802Z,99744.23
2018-12-08T16:30:30.355Z,99739.95
2018-12-08T16:33:02.963Z,99743.13
2018-12-08T16:35:37.794Z,99741.87
2018-12-08T16:38:10.312Z,99756.38
2018-12-08T16:40:42.653Z,99751.72
2018-12-08T16:43:19.689Z,99752.75
2018-12-08T16:45:51.459Z,99748.27
2018-12-08T16:48:23.678Z,99743.50
2018-12-08T16:50:55.253Z,99738.55
2018-12-08T16:53:27.409Z,99739.07
2018-12-08T16:55:59.210Z,99736.45
2018-12-08T16:58:32.163Z,99735.61
2018-12-08T17:01:03.788Z,99739.07
2018-12-08T17:03:37.455Z,99744.45
2018-12-08T17:06:11.159Z,99737.92
2018-12-08T17:08:48.491Z,99742.87
2018-12-08T17:11:20.977Z,99742.64
2018-12-08T17:13:52.625Z,99745.77
2018-12-08T17:16:28.225Z,99740.70
2018-12-08T17:19:00.935Z,99741.61
2018-12-08T17:21:32.844Z,99737.59
2018-12-08T17:24:05.084Z,99728.66
2018-12-08T17:26:36.826Z,99733.95
2018-12-08T17:29:08.485Z,99729.97
2018-12-08T17:31:40.960Z,99736.50
2018-12-08T17:34:12.554Z,99731.67
2018-12-08T17:36:44.257Z,99720.03
2018-12-08T17:39:16.068Z,99723.20
2018-12-08T17:41:48.705Z,99725.41
2018-12-08T17:44:21.169Z,99728.30
2018-12-08T17:46:52.723Z,99724.91
2018-12-08T17:49:24.636Z,99726.78
2018-12-08T17:51:56.440Z,99729.84
2018-12-08T17:54:28.466Z,99731.31
2018-12-08T17:57:00.054Z,99727.63
2018-12-08T17:59:31.603Z,99728.42
2018-12-08T18:02:03.213Z,99720.58
2018-12-08T18:04:34.671Z,99725.91
2018-12-08T18:07:06.239Z,99721.13
2018-12-08T18:09:38.375Z,99725.53
2018-12-08T18:12:09.956Z,99722.83
2018-12-08T18:14:41.746Z,99716.39
2018-12-08T18:17:13.252Z,99717.61
2018-12-08T18:19:44.720Z,99718.13
2018-12-08T18:22:16.578Z,99717.91
2018-12-08T18:24:48.966Z,99709.23
2018-12-08T18:27:21.634Z,99712.59
2018-12-08T18:29:53.338Z,99706.91
2018-12-08T18:32:26.896Z,99710.53
2018-12-08T18:34:58.490Z,99717.52
2018-12-08T18:37:30.232Z,99705.94
2018-12-08T18:40:02.854Z,99710.00
2018-12-08T18:42:34.399Z,99711.70
2018-12-08T18:45:06.263Z,99711.31
2018-12-08T18:47:41.211Z,99706.36
2018-12-08T18:50:13.142Z,99703.92
2018-12-08T18:52:44.811Z,99696.94
2018-12-08T18:55:16.656Z,99695.50
2018-12-08T18:57:48.311Z,99699.81
2018-12-08T19:00:19.984Z,99692.50
2018-12-08T19:02:51.664Z,99695.50
2018-12-08T19:05:23.382Z,99699.97
2018-12-08T19:07:55.224Z,99686.52
2018-12-08T19:10:30.519Z,99692.31
2018-12-08T19:13:02.229Z,99687.02
2018-12-08T19:15:37.940Z,99690.68
2018-12-08T19:18:09.557Z,99690.39
2018-12-08T19:20:41.468Z,99686.62
2018-12-08T19:23:13.051Z,99681.73
2018-12-08T19:25:45.088Z,99680.64
2018-12-08T19:28:16.718Z,99679.77
2018-12-08T19:30:48.388Z,99679.05
2018-12-08T19:33:23.166Z,99679.84
2018-12-08T19:35:58.599Z,99679.19
2018-12-08T19:38:30.143Z,99673.66
2018-12-08T19:41:01.690Z,99668.34
2018-12-08T19:43:33.291Z,99678.52
2018-12-08T19:46:12.649Z,99677.67
2018-12-08T19:48:47.608Z,99676.82
2018-12-08T19:51:20.269Z,99672.65
2018-12-08T19:53:52.772Z,99669.38
2018-12-08T19:56:25.825Z,99665.82
2018-12-08T19:58:58.350Z,99666.27
2018-12-08T20:01:30.993Z,99663.83
2018-12-08T20:04:02.495Z,99660.23
2018-12-08T20:06:35.253Z,99664.74
2018-12-08T20:09:07.915Z,99663.33
2018-12-08T20:11:40.011Z,99661.37
2018-12-08T20:14:12.598Z,99660.38
2018-12-08T20:16:47.891Z,99658.98
2018-12-08T20:19:20.711Z,99650.65
2018-12-08T20:21:54.408Z,99655.61
2018-12-08T20:24:26.171Z,99651.30
2018-12-08T20:26:59.486Z,99655.22
2018-12-08T20:29:33.396Z,99653.52
2018-12-08T20:32:06.739Z,99649.29
2018-12-08T20:34:38.351Z,99647.34
2018-12-08T20:37:11.088Z,99645.69
2018-12-08T20:39:42.578Z,99644.05
2018-12-08T20:42:14.202Z,99641.52
2018-12-08T20:44:45.794Z,99644.98
2018-12-08T20:47:17.370Z,99642.06
2018-12-08T20:49:48.837Z,99640.75
2018-12-08T20:52:21.615Z,99642.44
2018-12-08T20:54:53.567Z,99636.84
2018-12-08T20:57:26.006Z,99639.88
2018-12-08T20:59:58.144Z,99644.41
2018-12-08T21:02:29.916Z,99646.47
2018-12-08T21:07:44.556Z,99641.77
2018-12-08T21:10:16.118Z,99646.72
2018-12-08T21:12:47.805Z,99643.98
2018-12-08T21:15:19.343Z,99643.98
2018-12-08T21:17:51.140Z,99654.86
2018-12-08T21:20:22.690Z,99643.32
2018-12-08T21:22:54.525Z,99642.27
2018-12-08T21:25:26.201Z,99641.37
2018-12-08T21:27:58.601Z,99635.75
2018-12-08T21:30:30.022Z,99633.00
2018-12-08T21:33:01.694Z,99631.70
2018-12-08T21:35:33.574Z,99630.25
2018-12-08T21:38:06.492Z,99628.94
2018-12-08T21:40:38.531Z,99625.23
2018-12-08T21:43:10.119Z,99634.54
2018-12-08T21:45:41.870Z,99631.00
2018-12-08T21:48:13.827Z,99631.94
2018-12-08T21:50:45.625Z,99634.54
2018-12-08T21:53:17.502Z,99630.98
2018-12-08T21:55:50.170Z,99630.48
2018-12-08T21:58:22.569Z,99630.34
2018-12-08T22:00:54.533Z,99626.72
2018-12-08T22:03:26.283Z,99628.64
2018-12-08T22:05:57.682Z,99631.48
2018-12-08T22:08:29.320Z,99631.54
2018-12-08T22:11:00.955Z,99626.73
2018-12-08T22:13:33.126Z,99624.52
2018-12-08T22:16:04.558Z,99627.58
2018-12-08T22:18:36.100Z,99626.94
2018-12-08T22:21:07.705Z,99625.13
2018-12-08T22:23:39.288Z,99630.93
2018-12-08T22:26:10.890Z,99627.40
2018-12-08T22:28:42.747Z,99633.67
2018-12-08T22:31:14.318Z,99632.37
2018-12-08T22:33:46.114Z,99625.11
2018-12-08T22:36:17.529Z,99633.11
2018-12-08T22:38:49.901Z,99628.06
2018-12-08T22:41:21.881Z,99628.17
2018-12-08T22:43:53.634Z,99628.91
2018-12-08T22:46:25.411Z,99625.96
2018-12-08T22:48:57.499Z,99622.55
2018-12-08T22:51:28.964Z,99620.94
2018-12-08T22:54:00.590Z,99637.73
2018-12-08T22:56:32.152Z,99635.72
2018-12-08T22:59:04.364Z,99643.34
2018-12-08T23:01:35.837Z,99633.34
2018-12-08T23:04:07.515Z,99642.63
2018-12-08T23:06:38.870Z,99643.02
2018-12-08T23:09:10.740Z,99644.94
2018-12-08T23:11:44.599Z,99652.34
2018-12-08T23:14:16.079Z,99651.39
2018-12-08T23:16:47.887Z,99648.79
2018-12-08T23:19:19.374Z,99654.19
2018-12-08T23:21:51.395Z,99657.79
2018-12-08T23:24:23.122Z,99661.30
2018-12-08T23:26:54.541Z,99659.44
2018-12-08T23:29:27.079Z,99657.75
2018-12-08T23:31:58.924Z,99663.33
2018-12-08T23:34:31.011Z,99667.14
2018-12-08T23:37:02.695Z,99665.84
2018-12-08T23:39:39.190Z,99659.83
2018-12-08T23:42:10.696Z,99669.34
2018-12-08T23:44:42.459Z,99663.73
2018-12-08T23:47:14.111Z,99667.37
2018-12-08T23:49:46.769Z,99665.27
2018-12-08T23:52:18.669Z,99666.29
2018-12-08T23:54:50.746Z,99672.27
2018-12-08T23:57:22.556Z,99672.22
2018-12-08T23:59:55.167Z,99672.80
